createdAt,value
2023-04-01T00:05:51.204Z,13.94
2023-04-01T00:11:17.112Z,13.91
2023-04-01T00:16:41.674Z,13.88
2023-04-01T00:22:05.777Z,13.79
2023-04-01T00:27:29.651Z,13.87
2023-04-01T00:32:55.207Z,13.86
2023-04-01T00:38:20.058Z,13.84
2023-04-01T00:43:46.222Z,13.85
2023-04-01T00:49:11.018Z,13.91
2023-04-01T00:54:36.355Z,13.92
2023-04-01T01:00:01.124Z,13.88
2023-04-01T01:05:48.350Z,13.88
2023-04-01T01:11:15.724Z,14.04
2023-04-01T01:16:46.469Z,14.04
2023-04-01T01:22:31.278Z,14.07
2023-04-01T01:28:37.289Z,14.03
2023-04-01T01:34:16.667Z,13.97
2023-04-01T01:39:45.188Z,13.91
2023-04-01T01:45:13.740Z,13.72
2023-04-01T01:50:39.070Z,13.68
2023-04-01T01:56:04.192Z,13.67
2023-04-01T02:01:36.977Z,13.62
2023-04-01T02:07:17.554Z,13.57
2023-04-01T02:12:48.126Z,13.45
2023-04-01T02:18:14.603Z,13.35
2023-04-01T02:23:39.669Z,13.25
2023-04-01T02:29:07.022Z,13.33
2023-04-01T02:34:31.053Z,13.34
2023-04-01T02:40:01.797Z,13.25
2023-04-01T02:45:27.061Z,13.23
2023-04-01T02:50:51.417Z,13.22
2023-04-01T02:56:16.212Z,13.30
2023-04-01T03:01:40.116Z,13.31
2023-04-01T03:07:04.086Z,13.31
2023-04-01T03:12:28.835Z,13.46
2023-04-01T03:17:53.619Z,13.48
2023-04-01T03:23:20.639Z,13.47
2023-04-01T03:28:44.646Z,13.47
2023-04-01T03:34:09.188Z,13.47
2023-04-01T03:39:33.509Z,13.41
2023-04-01T03:44:57.630Z,13.46
2023-04-01T03:50:22.546Z,13.46
2023-04-01T03:55:48.003Z,13.41
2023-04-01T04:01:22.181Z,13.27
2023-04-01T04:06:49.314Z,13.20
2023-04-01T04:12:14.032Z,13.25
2023-04-01T04:17:38.220Z,13.27
2023-04-01T04:23:02.832Z,13.19
2023-04-01T04:28:28.501Z,13.18
2023-04-01T04:33:54.444Z,13.10
2023-04-01T04:39:18.538Z,13.10
2023-04-01T04:44:42.879Z,13.16
2023-04-01T04:50:07.825Z,13.25
2023-04-01T04:55:34.669Z,13.24
2023-04-01T05:01:18.800Z,13.23
2023-04-01T05:06:46.060Z,13.33
2023-04-01T05:12:11.218Z,13.41
2023-04-01T05:17:55.421Z,13.38
2023-04-01T05:23:20.182Z,13.31
2023-04-01T05:28:44.710Z,13.31
2023-04-01T05:34:09.357Z,13.30
2023-04-01T05:39:33.353Z,13.29
2023-04-01T05:44:58.356Z,13.35
2023-04-01T05:50:48.423Z,13.36
2023-04-01T05:56:13.544Z,13.37
2023-04-01T06:01:40.734Z,13.45
2023-04-01T06:07:19.422Z,13.51
2023-04-01T06:12:54.699Z,13.50
2023-04-01T06:18:37.381Z,13.48
2023-04-01T06:24:38.810Z,13.53
2023-04-01T06:30:26.972Z,13.43
2023-04-01T06:36:14.457Z,13.49
2023-04-01T06:41:51.601Z,13.49
2023-04-01T06:47:31.017Z,13.56
2023-04-01T06:53:38.096Z,13.61
2023-04-01T06:59:41.863Z,13.67
2023-04-01T07:05:06.755Z,13.82
2023-04-01T07:10:47.960Z,13.79
2023-04-01T07:17:03.275Z,13.85
2023-04-01T07:22:45.924Z,13.88
2023-04-01T07:28:35.530Z,14.04
2023-04-01T07:34:51.328Z,14.17
2023-04-01T07:40:40.597Z,14.24
2023-04-01T07:46:38.948Z,14.45
2023-04-01T07:52:37.194Z,14.50
2023-04-01T07:58:18.824Z,14.68
2023-04-01T08:03:49.364Z,14.66
2023-04-01T08:09:29.112Z,14.52
2023-04-01T08:15:28.815Z,14.51
2023-04-01T08:21:03.989Z,14.63
2023-04-01T08:26:38.613Z,14.86
2023-04-01T08:32:18.366Z,14.97
2023-04-01T08:37:46.961Z,14.90
2023-04-01T08:43:38.166Z,14.98
2023-04-01T08:49:23.755Z,15.21
2023-04-01T08:55:04.595Z,15.35
2023-04-01T09:00:57.617Z,15.36
2023-04-01T09:06:39.565Z,15.16
2023-04-01T09:12:49.728Z,15.20
2023-04-01T09:18:25.362Z,15.24
2023-04-01T09:24:13.130Z,15.42
2023-04-01T09:29:49.654Z,15.69
2023-04-01T09:35:29.617Z,15.99
2023-04-01T09:41:23.376Z,16.11
2023-04-01T09:47:11.306Z,16.38
2023-04-01T09:53:05.355Z,16.69
2023-04-01T09:58:55.905Z,16.72
2023-04-01T10:04:57.596Z,15.51
2023-04-01T10:10:43.867Z,16.62
2023-04-01T10:16:27.591Z,16.23
2023-04-01T10:22:25.093Z,14.88
2023-04-01T10:28:16.500Z,16.05
2023-04-01T10:35:18.166Z,15.28
2023-04-01T10:41:57.062Z,14.99
2023-04-01T10:48:25.919Z,16.08
2023-04-01T10:54:44.442Z,15.62
2023-04-01T11:01:09.304Z,15.50
2023-04-01T11:07:44.014Z,16.78
2023-04-01T11:13:29.556Z,16.09
2023-04-01T11:19:12.404Z,14.91
2023-04-01T11:25:00.997Z,15.79
2023-04-01T11:31:04.489Z,16.17
2023-04-01T11:37:01.352Z,15.13
2023-04-01T11:42:51.710Z,15.88
2023-04-01T11:48:52.221Z,16.05
2023-04-01T11:54:52.043Z,14.80
2023-04-01T12:00:47.013Z,15.95
2023-04-01T12:06:44.977Z,15.79
2023-04-01T12:12:22.340Z,14.59
2023-04-01T12:18:25.013Z,15.96
2023-04-01T12:24:35.130Z,16.70
2023-04-01T12:30:23.390Z,15.69
2023-04-01T12:35:57.367Z,15.36
2023-04-01T12:41:46.247Z,16.90
2023-04-01T12:47:34.665Z,16.91
2023-04-01T12:53:28.742Z,16.21
2023-04-01T12:59:19.317Z,15.75
2023-04-01T13:05:12.211Z,15.62
2023-04-01T13:10:59.440Z,15.58
2023-04-01T13:16:58.767Z,15.50
2023-04-01T13:22:47.192Z,15.34
2023-04-01T13:28:22.570Z,15.20
2023-04-01T13:34:01.691Z,15.27
2023-04-01T13:39:50.109Z,15.52
2023-04-01T13:45:27.865Z,15.86
2023-04-01T13:51:03.775Z,16.28
2023-04-01T13:57:20.479Z,16.46
2023-04-01T14:02:55.884Z,16.56
2023-04-01T14:08:53.269Z,16.48
2023-04-01T14:14:25.702Z,16.37
2023-04-01T14:20:11.814Z,15.98
2023-04-01T14:25:56.271Z,15.44
2023-04-01T14:31:33.063Z,14.77
2023-04-01T14:37:20.361Z,15.61
2023-04-01T14:43:17.167Z,17.88
2023-04-01T14:48:45.025Z,18.71
2023-04-01T14:54:15.291Z,18.23
2023-04-01T15:00:07.902Z,16.40
2023-04-01T15:05:53.897Z,15.59
2023-04-01T15:11:53.921Z,14.80
2023-04-01T15:17:31.400Z,16.06
2023-04-01T15:23:22.651Z,17.29
2023-04-01T15:29:05.502Z,17.68
2023-04-01T15:35:07.054Z,17.42
2023-04-01T15:40:37.701Z,15.44
2023-04-01T15:46:40.245Z,14.28
2023-04-01T15:52:16.871Z,14.41
2023-04-01T15:57:53.789Z,15.69
2023-04-01T16:03:31.361Z,16.22
2023-04-01T16:09:04.140Z,16.57
2023-04-01T16:14:46.473Z,16.59
2023-04-01T16:20:11.991Z,16.36
2023-04-01T16:25:55.128Z,16.63
2023-04-01T16:31:47.801Z,17.04
2023-04-01T16:37:23.614Z,17.36
2023-04-01T16:43:07.438Z,17.65
2023-04-01T16:48:54.421Z,17.36
2023-04-01T16:54:40.651Z,15.42
2023-04-01T17:00:29.361Z,13.84
2023-04-01T17:06:29.387Z,13.95
2023-04-01T17:12:32.437Z,15.59
2023-04-01T17:17:56.659Z,16.30
2023-04-01T17:23:54.611Z,16.48
2023-04-01T17:29:57.938Z,17.00
2023-04-01T17:35:36.432Z,17.35
2023-04-01T17:41:18.989Z,17.67
2023-04-01T17:46:47.292Z,17.07
2023-04-01T17:52:21.295Z,15.16
2023-04-01T17:58:00.197Z,13.79
2023-04-01T18:03:37.618Z,12.85
2023-04-01T18:09:45.593Z,13.28
2023-04-01T18:15:28.457Z,15.65
2023-04-01T18:21:20.166Z,16.40
2023-04-01T18:26:52.732Z,16.40
2023-04-01T18:32:48.303Z,16.49
2023-04-01T18:38:39.532Z,16.50
2023-04-01T18:44:35.969Z,16.56
2023-04-01T18:50:18.541Z,16.60
2023-04-01T18:55:57.216Z,16.58
2023-04-01T19:01:47.310Z,16.70
2023-04-01T19:07:29.965Z,16.76
2023-04-01T19:13:14.776Z,16.81
2023-04-01T19:19:04.299Z,17.08
2023-04-01T19:24:55.340Z,16.39
2023-04-01T19:30:48.479Z,14.20
2023-04-01T19:36:25.906Z,12.40
2023-04-01T19:42:04.884Z,12.42
2023-04-01T19:47:59.418Z,13.90
2023-04-01T19:53:37.845Z,14.66
2023-04-01T19:59:15.406Z,14.99
2023-04-01T20:04:49.762Z,15.15
2023-04-01T20:10:44.925Z,15.14
2023-04-01T20:16:12.153Z,15.20
2023-04-01T20:21:39.860Z,15.25
2023-04-01T20:27:34.777Z,15.37
2023-04-01T20:33:17.313Z,15.32
2023-04-01T20:39:12.666Z,15.27
2023-04-01T20:44:49.848Z,15.32
2023-04-01T20:50:37.637Z,15.48
2023-04-01T20:56:49.552Z,15.59
2023-04-01T21:02:31.053Z,15.73
2023-04-01T21:08:42.165Z,14.53
2023-04-01T21:14:32.926Z,11.95
2023-04-01T21:20:27.854Z,11.66
2023-04-01T21:26:24.037Z,13.26
2023-04-01T21:32:07.500Z,13.78
2023-04-01T21:37:55.871Z,14.24
2023-04-01T21:43:40.269Z,14.47
2023-04-01T21:49:31.726Z,14.38
2023-04-01T21:55:08.787Z,14.09
2023-04-01T22:00:51.015Z,13.97
2023-04-01T22:06:40.143Z,14.00
2023-04-01T22:12:42.145Z,13.96
2023-04-01T22:18:23.461Z,14.00
2023-04-01T22:24:12.976Z,13.98
2023-04-01T22:29:48.529Z,13.90
2023-04-01T22:35:45.754Z,13.76
2023-04-01T22:41:43.040Z,13.66
2023-04-01T22:47:21.604Z,13.64
2023-04-01T22:52:54.149Z,13.93
2023-04-01T22:58:35.502Z,13.48
2023-04-01T23:04:05.047Z,11.04
2023-04-01T23:09:34.641Z,10.34
2023-04-01T23:15:03.469Z,11.73
2023-04-01T23:20:52.179Z,12.40
2023-04-01T23:26:41.680Z,12.52
2023-04-01T23:32:06.024Z,12.53
2023-04-01T23:37:34.965Z,12.67
2023-04-01T23:42:59.277Z,12.71
2023-04-01T23:48:30.760Z,12.55
2023-04-01T23:54:20.428Z,12.52
2023-04-01T23:59:45.174Z,12.63
